createdAt,value
2019-05-25T00:00:59.887Z,1008.52
2019-05-25T00:01:59.848Z,1008.52
2019-05-25T00:02:59.839Z,1008.52
2019-05-25T00:03:59.846Z,1008.51
2019-05-25T00:04:59.819Z,1008.46
2019-05-25T00:05:59.816Z,1008.45
2019-05-25T00:06:59.792Z,1008.44
2019-05-25T00:07:59.776Z,1008.45
2019-05-25T00:08:59.774Z,1008.45
2019-05-25T00:09:59.783Z,1008.51
2019-05-25T00:10:59.759Z,1008.49
2019-05-25T00:11:59.738Z,1008.53
2019-05-25T00:12:59.723Z,1008.45
2019-05-25T00:13:59.714Z,1008.48
2019-05-25T00:14:59.708Z,1008.46
2019-05-25T00:15:59.722Z,1008.42
2019-05-25T00:16:59.684Z,1008.47
2019-05-25T00:17:59.667Z,1008.45
2019-05-25T00:18:59.661Z,1008.46
2019-05-25T00:19:59.645Z,1008.47
2019-05-25T00:20:59.656Z,1008.46
2019-05-25T00:21:59.628Z,1008.45
2019-05-25T00:22:59.613Z,1008.48
2019-05-25T00:24:11.789Z,1008.45
2019-05-25T00:25:00.592Z,1008.50
2019-05-25T00:25:59.599Z,1008.51
2019-05-25T00:26:59.577Z,1008.46
2019-05-25T00:27:59.555Z,1008.51
2019-05-25T00:28:59.545Z,1008.47
2019-05-25T00:29:59.542Z,1008.48
2019-05-25T00:30:59.549Z,1008.51
2019-05-25T00:31:59.522Z,1008.51
2019-05-25T00:32:59.501Z,1008.54
2019-05-25T00:33:59.491Z,1008.55
2019-05-25T00:34:59.497Z,1008.53
2019-05-25T00:35:59.494Z,1008.52
2019-05-25T00:36:59.464Z,1008.55
2019-05-25T00:37:59.449Z,1008.55
2019-05-25T00:38:59.436Z,1008.57
2019-05-25T00:39:59.444Z,1008.57
2019-05-25T00:40:59.412Z,1008.60
2019-05-25T00:41:59.425Z,1008.57
2019-05-25T00:42:59.397Z,1008.61
2019-05-25T00:43:59.381Z,1008.58
2019-05-25T00:44:59.372Z,1008.65
2019-05-25T00:45:59.356Z,1008.66
2019-05-25T00:46:59.366Z,1008.62
2019-05-25T00:47:59.336Z,1008.64
2019-05-25T00:48:59.329Z,1008.59
2019-05-25T00:49:59.320Z,1008.58
2019-05-25T00:50:59.302Z,1008.63
2019-05-25T00:51:59.312Z,1008.66
2019-05-25T00:52:59.280Z,1008.72
2019-05-25T00:53:59.271Z,1008.63
2019-05-25T00:54:59.274Z,1008.70
2019-05-25T00:55:59.246Z,1008.64
2019-05-25T00:56:59.263Z,1008.69
2019-05-25T00:57:59.222Z,1008.68
2019-05-25T00:58:59.211Z,1008.71
2019-05-25T00:59:59.202Z,1008.75
2019-05-25T01:00:59.216Z,1008.71
2019-05-25T01:01:59.199Z,1008.71
2019-05-25T01:02:59.174Z,1008.73
2019-05-25T01:03:59.159Z,1008.70
2019-05-25T01:04:59.151Z,1008.67
2019-05-25T01:05:59.135Z,1008.72
2019-05-25T01:06:59.143Z,1008.71
2019-05-25T01:07:59.111Z,1008.72
2019-05-25T01:08:59.102Z,1008.70
2019-05-25T01:09:59.085Z,1008.70
2019-05-25T01:10:59.075Z,1008.71
2019-05-25T01:11:59.083Z,1008.72
2019-05-25T01:12:59.060Z,1008.76
2019-05-25T01:13:59.051Z,1008.72
2019-05-25T01:14:59.036Z,1008.75
2019-05-25T01:15:59.047Z,1008.79
2019-05-25T01:16:59.027Z,1008.78
2019-05-25T01:17:58.999Z,1008.76
2019-05-25T01:18:59.000Z,1008.76
2019-05-25T01:19:58.978Z,1008.71
2019-05-25T01:20:58.963Z,1008.78
2019-05-25T01:21:58.972Z,1008.76
2019-05-25T01:22:58.943Z,1008.77
2019-05-25T01:23:58.942Z,1008.72
2019-05-25T01:24:58.920Z,1008.76
2019-05-25T01:25:58.912Z,1008.74
2019-05-25T01:26:58.926Z,1008.74
2019-05-25T01:27:58.894Z,1008.80
2019-05-25T01:28:58.881Z,1008.77
2019-05-25T01:29:58.875Z,1008.80
2019-05-25T01:30:58.861Z,1008.76
2019-05-25T01:31:58.863Z,1008.76
2019-05-25T01:32:58.848Z,1008.79
2019-05-25T01:33:58.820Z,1008.81
2019-05-25T01:34:58.818Z,1008.82
2019-05-25T01:35:58.811Z,1008.76
2019-05-25T01:36:58.805Z,1008.78
2019-05-25T01:37:58.777Z,1008.78
2019-05-25T01:38:58.763Z,1008.77
2019-05-25T01:39:58.755Z,1008.77
2019-05-25T01:40:58.751Z,1008.76
2019-05-25T01:41:58.756Z,1008.73
2019-05-25T01:42:58.731Z,1008.77
2019-05-25T01:43:58.707Z,1008.76
2019-05-25T01:44:58.704Z,1008.79
2019-05-25T01:45:58.706Z,1008.79
2019-05-25T01:46:58.678Z,1008.82
2019-05-25T01:47:58.690Z,1008.84
2019-05-25T01:48:58.651Z,1008.91
2019-05-25T01:49:58.640Z,1008.87
2019-05-25T01:50:58.649Z,1008.91
2019-05-25T01:51:58.621Z,1008.90
2019-05-25T01:52:58.629Z,1008.90
2019-05-25T01:53:58.597Z,1008.96
2019-05-25T01:55:00.260Z,1008.86
2019-05-25T01:55:58.573Z,1008.90
2019-05-25T01:56:58.564Z,1008.90
2019-05-25T01:57:58.573Z,1008.95
2019-05-25T01:58:58.548Z,1008.88
2019-05-25T01:59:58.537Z,1008.94
2019-05-25T02:00:58.517Z,1008.93
2019-05-25T02:01:58.509Z,1008.91
2019-05-25T02:02:58.514Z,1008.97
2019-05-25T02:03:58.499Z,1008.98
2019-05-25T02:04:58.476Z,1008.97
2019-05-25T02:05:58.465Z,1008.96
2019-05-25T02:06:58.459Z,1008.98
2019-05-25T02:07:58.462Z,1008.97
2019-05-25T02:08:58.437Z,1008.93
2019-05-25T02:09:58.434Z,1008.94
2019-05-25T02:10:58.426Z,1008.97
2019-05-25T02:11:58.400Z,1008.90
2019-05-25T02:12:58.403Z,1008.95
2019-05-25T02:13:58.373Z,1008.96
2019-05-25T02:14:58.363Z,1008.96
2019-05-25T02:15:58.369Z,1008.92
2019-05-25T02:16:58.340Z,1008.95
2019-05-25T02:17:58.344Z,1008.95
2019-05-25T02:18:58.323Z,1008.97
2019-05-25T02:19:58.312Z,1009.01
2019-05-25T02:20:58.304Z,1008.97
2019-05-25T02:21:58.284Z,1009.05
2019-05-25T02:22:58.302Z,1008.99
2019-05-25T02:23:58.263Z,1009.03
2019-05-25T02:24:58.250Z,1009.03
2019-05-25T02:25:58.243Z,1009.08
2019-05-25T02:26:58.249Z,1009.04
2019-05-25T02:27:58.242Z,1009.09
2019-05-25T02:28:58.208Z,1009.08
2019-05-25T02:29:58.196Z,1009.06
2019-05-25T02:30:58.191Z,1009.07
2019-05-25T02:31:58.171Z,1009.05
2019-05-25T02:32:58.181Z,1009.02
2019-05-25T02:33:58.153Z,1009.03
2019-05-25T02:34:58.167Z,1009.05
2019-05-25T02:35:58.131Z,1009.08
2019-05-25T02:36:58.126Z,1009.07
2019-05-25T02:37:58.145Z,1009.07
2019-05-25T02:38:58.104Z,1009.12
2019-05-25T02:39:58.088Z,1009.10
2019-05-25T02:40:58.078Z,1009.08
2019-05-25T02:41:58.062Z,1009.13
2019-05-25T02:42:58.074Z,1009.10
2019-05-25T02:43:58.037Z,1009.12
2019-05-25T02:44:58.067Z,1009.13
2019-05-25T02:45:58.047Z,1009.11
2019-05-25T02:46:58.018Z,1009.11
2019-05-25T02:47:57.994Z,1009.13
2019-05-25T02:48:58.002Z,1009.11
2019-05-25T02:49:57.982Z,1009.10
2019-05-25T02:50:57.964Z,1009.11
2019-05-25T02:51:57.953Z,1009.13
2019-05-25T02:52:57.935Z,1009.13
2019-05-25T02:53:57.944Z,1009.15
2019-05-25T02:54:57.930Z,1009.17
2019-05-25T02:55:57.931Z,1009.17
2019-05-25T02:56:57.903Z,1009.12
2019-05-25T02:57:57.919Z,1009.15
2019-05-25T02:58:57.895Z,1009.20
2019-05-25T02:59:57.859Z,1009.21
2019-05-25T03:00:57.856Z,1009.19
2019-05-25T03:01:57.850Z,1009.26
2019-05-25T03:02:57.829Z,1009.22
2019-05-25T03:03:57.834Z,1009.22
2019-05-25T03:04:57.823Z,1009.23
2019-05-25T03:05:57.825Z,1009.25
2019-05-25T03:06:57.794Z,1009.30
2019-05-25T03:07:57.776Z,1009.28
2019-05-25T03:08:57.775Z,1009.32
2019-05-25T03:09:57.754Z,1009.29
2019-05-25T03:10:57.755Z,1009.28
2019-05-25T03:11:57.722Z,1009.33
2019-05-25T03:12:57.720Z,1009.31
2019-05-25T03:13:57.733Z,1009.34
2019-05-25T03:14:57.689Z,1009.36
2019-05-25T03:15:57.685Z,1009.30
2019-05-25T03:16:57.685Z,1009.33
2019-05-25T03:17:57.663Z,1009.33
2019-05-25T03:18:57.672Z,1009.28
2019-05-25T03:19:57.640Z,1009.26
2019-05-25T03:20:57.631Z,1009.27
2019-05-25T03:21:57.617Z,1009.31
2019-05-25T03:22:57.606Z,1009.33
2019-05-25T03:23:57.629Z,1009.29
2019-05-25T03:24:57.579Z,1009.29
2019-05-25T03:25:57.574Z,1009.31
2019-05-25T03:26:57.559Z,1009.36
2019-05-25T03:27:57.547Z,1009.35
2019-05-25T03:28:57.555Z,1009.37
2019-05-25T03:29:57.537Z,1009.41
2019-05-25T03:30:57.512Z,1009.44
2019-05-25T03:31:57.499Z,1009.41
2019-05-25T03:32:57.493Z,1009.45
2019-05-25T03:33:57.510Z,1009.43
2019-05-25T03:34:57.472Z,1009.41
2019-05-25T03:35:57.473Z,1009.49
2019-05-25T03:36:57.449Z,1009.45
2019-05-25T03:37:57.437Z,1009.46
2019-05-25T03:38:57.444Z,1009.54
2019-05-25T03:39:57.417Z,1009.58
2019-05-25T03:40:57.409Z,1009.55
2019-05-25T03:41:57.407Z,1009.56
2019-05-25T03:42:57.381Z,1009.56
2019-05-25T03:43:57.401Z,1009.62
2019-05-25T03:44:57.356Z,1009.59
2019-05-25T03:45:57.353Z,1009.56
2019-05-25T03:46:57.358Z,1009.59
2019-05-25T03:47:57.333Z,1009.54
2019-05-25T03:48:57.309Z,1009.58
2019-05-25T03:49:57.317Z,1009.57
2019-05-25T03:50:57.292Z,1009.58
2019-05-25T03:51:57.283Z,1009.58
2019-05-25T03:52:57.272Z,1009.53
2019-05-25T03:53:57.254Z,1009.49
2019-05-25T03:54:57.277Z,1009.52
2019-05-25T03:56:06.020Z,1009.50
2019-05-25T03:56:58.223Z,1009.51
2019-05-25T03:57:57.226Z,1009.50
2019-05-25T03:58:57.203Z,1009.53
2019-05-25T03:59:57.223Z,1009.52
2019-05-25T04:00:57.177Z,1009.54
2019-05-25T04:01:57.166Z,1009.57
2019-05-25T04:02:57.156Z,1009.53
2019-05-25T04:03:57.147Z,1009.54
2019-05-25T04:04:57.156Z,1009.55
2019-05-25T04:05:57.130Z,1009.59
2019-05-25T04:06:57.111Z,1009.59
2019-05-25T04:07:57.099Z,1009.54
2019-05-25T04:08:57.090Z,1009.55
2019-05-25T04:09:57.117Z,1009.50
2019-05-25T04:10:57.074Z,1009.49
2019-05-25T04:11:57.055Z,1009.46
2019-05-25T04:12:57.044Z,1009.50
2019-05-25T04:13:57.034Z,1009.48
2019-05-25T04:14:57.042Z,1009.52
2019-05-25T04:15:57.023Z,1009.51
2019-05-25T04:16:57.024Z,1009.51
2019-05-25T04:17:56.987Z,1009.58
2019-05-25T04:18:56.980Z,1009.60
2019-05-25T04:19:57.650Z,1009.58
2019-05-25T04:20:56.952Z,1009.60
2019-05-25T04:21:56.956Z,1009.57
2019-05-25T04:22:56.930Z,1009.58
2019-05-25T04:23:56.920Z,1009.59
2019-05-25T04:24:56.979Z,1009.60
2019-05-25T04:25:56.908Z,1009.59
2019-05-25T04:26:56.900Z,1009.62
2019-05-25T04:27:56.885Z,1009.64
2019-05-25T04:28:56.870Z,1009.62
2019-05-25T04:29:56.877Z,1009.62
2019-05-25T04:30:56.842Z,1009.70
2019-05-25T04:31:56.830Z,1009.66
2019-05-25T04:32:56.877Z,1009.66
2019-05-25T04:33:56.809Z,1009.72
2019-05-25T04:34:56.824Z,1009.71
2019-05-25T04:35:56.784Z,1009.81
2019-05-25T04:36:56.783Z,1009.79
2019-05-25T04:37:56.772Z,1009.76
2019-05-25T04:38:56.757Z,1009.82
2019-05-25T04:39:56.772Z,1009.86
2019-05-25T04:40:56.731Z,1009.82
2019-05-25T04:41:56.800Z,1009.83
2019-05-25T04:42:56.725Z,1009.81
2019-05-25T04:43:56.699Z,1009.85
2019-05-25T04:44:56.710Z,1009.78
2019-05-25T04:45:56.686Z,1009.83
2019-05-25T04:46:56.668Z,1009.82
2019-05-25T04:47:56.657Z,1009.86
2019-05-25T04:48:56.638Z,1009.83
2019-05-25T04:49:56.666Z,1009.81
2019-05-25T04:50:56.620Z,1009.84
2019-05-25T04:51:56.633Z,1009.88
2019-05-25T04:52:56.599Z,1009.80
2019-05-25T04:53:56.584Z,1009.83
2019-05-25T04:54:56.576Z,1009.87
2019-05-25T04:55:56.578Z,1009.89
2019-05-25T04:56:56.568Z,1009.90
2019-05-25T04:57:56.553Z,1009.93
2019-05-25T04:58:56.531Z,1009.94
2019-05-25T04:59:56.525Z,1009.92
2019-05-25T05:00:56.526Z,1009.93
2019-05-25T05:01:56.496Z,1009.95
2019-05-25T05:02:56.522Z,1009.97
2019-05-25T05:03:56.485Z,1009.99
2019-05-25T05:04:56.473Z,1009.99
2019-05-25T05:05:56.476Z,1009.98
2019-05-25T05:06:56.443Z,1009.96
2019-05-25T05:07:56.432Z,1009.94
2019-05-25T05:08:56.423Z,1009.92
2019-05-25T05:10:02.750Z,1009.95
2019-05-25T05:10:57.438Z,1009.96
2019-05-25T05:11:56.383Z,1009.98
2019-05-25T05:12:56.384Z,1009.97
2019-05-25T05:13:56.370Z,1009.98
2019-05-25T05:14:56.649Z,1010.01
2019-05-25T05:15:56.361Z,1010.02
2019-05-25T05:16:56.327Z,1009.99
2019-05-25T05:17:56.318Z,1010.01
2019-05-25T05:18:56.312Z,1009.97
2019-05-25T05:19:56.295Z,1009.97
2019-05-25T05:20:56.322Z,1010.04
2019-05-25T05:21:56.272Z,1010.07
2019-05-25T05:22:56.273Z,1010.04
2019-05-25T05:23:56.248Z,1010.05
2019-05-25T05:24:56.242Z,1010.03
2019-05-25T05:25:56.252Z,1010.02
2019-05-25T05:26:56.581Z,1010.04
2019-05-25T05:27:56.202Z,1010.05
2019-05-25T05:28:56.194Z,1010.02
2019-05-25T05:29:56.185Z,1010.10
2019-05-25T05:30:56.194Z,1010.08
2019-05-25T05:31:56.204Z,1010.03
2019-05-25T05:32:56.154Z,1010.03
2019-05-25T05:33:56.134Z,1010.04
2019-05-25T05:34:56.131Z,1010.06
2019-05-25T05:35:56.114Z,1009.99
2019-05-25T05:36:56.137Z,1010.04
2019-05-25T05:37:56.096Z,1010.03
2019-05-25T05:38:56.086Z,1010.06
2019-05-25T05:39:56.072Z,1010.05
2019-05-25T05:40:56.063Z,1010.01
2019-05-25T05:41:56.671Z,1010.02
2019-05-25T05:42:56.053Z,1010.06
2019-05-25T05:43:56.027Z,1009.96
2019-05-25T05:44:56.022Z,1010.02
2019-05-25T05:45:56.004Z,1010.01
2019-05-25T05:46:56.017Z,1010.00
2019-05-25T05:47:56.014Z,1010.05
2019-05-25T05:48:55.968Z,1010.07
2019-05-25T05:49:55.966Z,1010.11
2019-05-25T05:50:55.948Z,1010.07
2019-05-25T05:51:55.934Z,1010.08
2019-05-25T05:52:55.966Z,1010.13
2019-05-25T05:53:55.920Z,1010.18
2019-05-25T05:54:55.902Z,1010.16
2019-05-25T05:55:55.894Z,1010.19
2019-05-25T05:57:11.197Z,1010.22
2019-05-25T05:57:56.897Z,1010.18
2019-05-25T05:58:55.869Z,1010.21
2019-05-25T05:59:55.844Z,1010.22
2019-05-25T06:00:55.840Z,1010.27
2019-05-25T06:01:55.836Z,1010.27
2019-05-25T06:02:55.840Z,1010.23
2019-05-25T06:03:55.808Z,1010.29
2019-05-25T06:04:55.800Z,1010.28
2019-05-25T06:05:55.779Z,1010.31
2019-05-25T06:06:55.769Z,1010.33
2019-05-25T06:07:55.773Z,1010.25
2019-05-25T06:08:55.757Z,1010.32
2019-05-25T06:09:55.744Z,1010.33
2019-05-25T06:10:55.732Z,1010.24
2019-05-25T06:11:55.714Z,1010.34
2019-05-25T06:12:55.717Z,1010.40
2019-05-25T06:13:55.694Z,1010.33
2019-05-25T06:14:55.682Z,1010.37
2019-05-25T06:15:56.175Z,1010.40
2019-05-25T06:16:55.654Z,1010.43
2019-05-25T06:17:55.676Z,1010.34
2019-05-25T06:18:55.635Z,1010.36
2019-05-25T06:19:55.628Z,1010.35
2019-05-25T06:20:55.612Z,1010.35
2019-05-25T06:21:55.608Z,1010.37
2019-05-25T06:22:55.643Z,1010.42
2019-05-25T06:23:55.575Z,1010.40
2019-05-25T06:24:55.564Z,1010.36
2019-05-25T06:25:55.572Z,1010.39
2019-05-25T06:26:55.542Z,1010.39
2019-05-25T06:27:55.557Z,1010.39
2019-05-25T06:28:55.520Z,1010.44
2019-05-25T06:29:55.514Z,1010.44
2019-05-25T06:30:55.515Z,1010.47
2019-05-25T06:31:55.505Z,1010.48
2019-05-25T06:32:55.506Z,1010.51
2019-05-25T06:33:55.485Z,1010.53
2019-05-25T06:34:55.456Z,1010.57
2019-05-25T06:35:55.454Z,1010.59
2019-05-25T06:36:55.439Z,1010.64
2019-05-25T06:37:55.445Z,1010.66
2019-05-25T06:38:55.418Z,1010.65
2019-05-25T06:39:55.407Z,1010.63
2019-05-25T06:40:55.396Z,1010.60
2019-05-25T06:41:55.384Z,1010.55
2019-05-25T06:42:55.395Z,1010.63
2019-05-25T06:43:55.360Z,1010.56
2019-05-25T06:44:55.353Z,1010.69
2019-05-25T06:45:55.346Z,1010.72
2019-05-25T06:46:55.325Z,1010.74
2019-05-25T06:47:55.331Z,1010.74
2019-05-25T06:48:55.306Z,1010.76
2019-05-25T06:49:55.292Z,1010.74
2019-05-25T06:50:55.280Z,1010.78
2019-05-25T06:51:55.272Z,1010.80
2019-05-25T06:52:57.908Z,1010.78
2019-05-25T06:53:55.244Z,1010.81
2019-05-25T06:54:55.249Z,1010.82
2019-05-25T06:55:55.224Z,1010.78
2019-05-25T06:56:55.215Z,1010.83
2019-05-25T06:57:55.225Z,1010.83
2019-05-25T06:58:55.189Z,1010.91
2019-05-25T06:59:55.180Z,1010.83
2019-05-25T07:00:55.174Z,1010.83
2019-05-25T07:01:55.160Z,1010.87
2019-05-25T07:02:55.177Z,1010.81
2019-05-25T07:03:55.134Z,1010.88
2019-05-25T07:04:55.124Z,1010.83
2019-05-25T07:05:55.116Z,1010.85
2019-05-25T07:06:55.106Z,1010.93
2019-05-25T07:07:55.115Z,1010.90
2019-05-25T07:08:55.074Z,1010.92
2019-05-25T07:09:55.078Z,1010.91
2019-05-25T07:10:55.059Z,1010.95
2019-05-25T07:11:55.047Z,1010.87
2019-05-25T07:12:55.071Z,1010.92
2019-05-25T07:13:55.024Z,1010.91
2019-05-25T07:14:55.012Z,1010.89
2019-05-25T07:15:55.010Z,1010.91
2019-05-25T07:16:54.991Z,1010.89
2019-05-25T07:17:54.987Z,1010.89
2019-05-25T07:18:54.992Z,1010.90
2019-05-25T07:19:54.970Z,1010.89
2019-05-25T07:20:54.945Z,1010.86
2019-05-25T07:21:54.961Z,1010.91
2019-05-25T07:22:54.927Z,1010.95
2019-05-25T07:23:54.938Z,1010.87
2019-05-25T07:24:54.902Z,1010.86
2019-05-25T07:25:54.903Z,1010.89
2019-05-25T07:26:54.878Z,1010.91
2019-05-25T07:27:59.860Z,1010.90
2019-05-25T07:28:55.875Z,1010.87
2019-05-25T07:29:54.842Z,1010.90
2019-05-25T07:30:54.877Z,1010.94
2019-05-25T07:31:54.825Z,1010.95
2019-05-25T07:32:54.820Z,1010.95
2019-05-25T07:33:54.917Z,1010.92
2019-05-25T07:34:54.794Z,1010.97
2019-05-25T07:35:54.780Z,1010.95
2019-05-25T07:36:54.775Z,1010.96
2019-05-25T07:37:54.759Z,1010.96
2019-05-25T07:38:54.767Z,1010.97
2019-05-25T07:39:54.733Z,1010.95
2019-05-25T07:40:54.732Z,1011.01
2019-05-25T07:41:54.710Z,1011.02
2019-05-25T07:42:54.704Z,1010.98
2019-05-25T07:43:54.720Z,1011.00
2019-05-25T07:44:54.674Z,1011.02
2019-05-25T07:45:54.663Z,1011.09
2019-05-25T07:46:54.659Z,1011.07
2019-05-25T07:47:54.651Z,1011.00
2019-05-25T07:48:54.652Z,1011.02
2019-05-25T07:49:54.701Z,1010.97
2019-05-25T07:50:54.632Z,1011.03
2019-05-25T07:51:54.598Z,1011.02
2019-05-25T07:52:54.593Z,1011.01
2019-05-25T07:53:54.575Z,1011.03
2019-05-25T07:54:54.597Z,1011.00
2019-05-25T07:55:54.555Z,1011.04
2019-05-25T07:56:54.544Z,1011.04
2019-05-25T07:57:54.547Z,1011.02
2019-05-25T07:58:54.520Z,1011.09
2019-05-25T07:59:54.533Z,1011.11
2019-05-25T08:00:54.496Z,1011.11
2019-05-25T08:01:54.486Z,1011.10
2019-05-25T08:02:54.474Z,1011.09
2019-05-25T08:03:54.463Z,1011.03
2019-05-25T08:04:54.468Z,1011.08
2019-05-25T08:05:54.449Z,1011.12
2019-05-25T08:06:54.549Z,1011.15
2019-05-25T08:07:54.433Z,1011.17
2019-05-25T08:08:54.410Z,1011.17
2019-05-25T08:09:54.424Z,1011.11
2019-05-25T08:10:54.544Z,1011.14
2019-05-25T08:11:54.447Z,1011.10
2019-05-25T08:12:54.389Z,1011.14
2019-05-25T08:13:54.352Z,1011.14
2019-05-25T08:14:54.363Z,1011.17
2019-05-25T08:15:54.336Z,1011.20
2019-05-25T08:16:54.318Z,1011.21
2019-05-25T08:17:54.310Z,1011.20
2019-05-25T08:18:54.295Z,1011.26
2019-05-25T08:19:54.307Z,1011.26
2019-05-25T08:20:54.282Z,1011.27
2019-05-25T08:21:54.274Z,1011.25
2019-05-25T08:22:54.259Z,1011.21
2019-05-25T08:23:54.239Z,1011.29
2019-05-25T08:24:54.271Z,1011.27
2019-05-25T08:25:54.220Z,1011.24
2019-05-25T08:26:54.206Z,1011.24
2019-05-25T08:27:54.201Z,1011.27
2019-05-25T08:28:54.204Z,1011.24
2019-05-25T08:29:54.180Z,1011.25
2019-05-25T08:30:54.190Z,1011.26
2019-05-25T08:31:54.153Z,1011.26
2019-05-25T08:32:54.207Z,1011.27
2019-05-25T08:33:54.140Z,1011.28
2019-05-25T08:34:54.133Z,1011.29
2019-05-25T08:35:54.126Z,1011.28
2019-05-25T08:36:54.095Z,1011.30
2019-05-25T08:37:54.081Z,1011.24
2019-05-25T08:38:54.946Z,1011.27
2019-05-25T08:39:54.087Z,1011.27
2019-05-25T08:40:54.098Z,1011.22
2019-05-25T08:41:54.044Z,1011.26
2019-05-25T08:42:54.029Z,1011.28
2019-05-25T08:43:54.036Z,1011.29
2019-05-25T08:44:54.009Z,1011.28
2019-05-25T08:45:54.013Z,1011.27
2019-05-25T08:46:55.503Z,1011.30
2019-05-25T08:47:57.064Z,1011.30
2019-05-25T08:48:54.035Z,1011.32
2019-05-25T08:49:53.961Z,1011.29
2019-05-25T08:50:53.944Z,1011.30
2019-05-25T08:51:55.033Z,1011.32
2019-05-25T08:52:53.920Z,1011.28
2019-05-25T08:53:53.915Z,1011.28
2019-05-25T08:54:53.897Z,1011.29
2019-05-25T08:55:53.883Z,1011.32
2019-05-25T08:56:53.889Z,1011.34
2019-05-25T08:57:53.874Z,1011.29
2019-05-25T08:58:55.641Z,1011.32
2019-05-25T08:59:53.834Z,1011.32
2019-05-25T09:00:53.829Z,1011.24
2019-05-25T09:01:53.844Z,1011.28
2019-05-25T09:02:53.816Z,1011.35
2019-05-25T09:03:53.834Z,1011.38
2019-05-25T09:04:53.782Z,1011.33
2019-05-25T09:05:53.771Z,1011.37
2019-05-25T09:06:53.784Z,1011.35
2019-05-25T09:07:53.756Z,1011.34
2019-05-25T09:08:53.755Z,1011.37
2019-05-25T09:09:53.721Z,1011.29
2019-05-25T09:10:53.717Z,1011.34
2019-05-25T09:11:53.709Z,1011.35
2019-05-25T09:12:53.720Z,1011.38
2019-05-25T09:13:53.687Z,1011.41
2019-05-25T09:14:53.697Z,1011.42
2019-05-25T09:15:53.660Z,1011.41
2019-05-25T09:16:53.650Z,1011.42
2019-05-25T09:17:53.665Z,1011.44
2019-05-25T09:18:53.627Z,1011.47
2019-05-25T09:19:53.620Z,1011.48
2019-05-25T09:20:53.600Z,1011.47
2019-05-25T09:22:02.583Z,1011.48
2019-05-25T09:22:54.604Z,1011.46
2019-05-25T09:23:53.578Z,1011.51
2019-05-25T09:24:53.565Z,1011.42
2019-05-25T09:25:53.561Z,1011.48
2019-05-25T09:26:53.539Z,1011.48
2019-05-25T09:27:53.565Z,1011.53
2019-05-25T09:29:04.002Z,1011.55
2019-05-25T09:29:54.503Z,1011.54
2019-05-25T09:30:53.500Z,1011.51
2019-05-25T09:31:53.488Z,1011.55
2019-05-25T09:32:53.471Z,1011.53
2019-05-25T09:33:53.475Z,1011.55
2019-05-25T09:34:53.459Z,1011.60
2019-05-25T09:35:53.439Z,1011.54
2019-05-25T09:36:53.430Z,1011.54
2019-05-25T09:37:53.423Z,1011.57
2019-05-25T09:38:53.428Z,1011.56
2019-05-25T09:39:53.405Z,1011.54
2019-05-25T09:40:53.380Z,1011.55
2019-05-25T09:41:53.370Z,1011.56
2019-05-25T09:42:53.426Z,1011.56
2019-05-25T09:43:53.361Z,1011.57
2019-05-25T09:44:53.333Z,1011.57
2019-05-25T09:45:53.328Z,1011.57
2019-05-25T09:46:53.321Z,1011.62
2019-05-25T09:47:53.306Z,1011.64
2019-05-25T09:48:53.320Z,1011.66
2019-05-25T09:49:53.336Z,1011.66
2019-05-25T09:50:53.269Z,1011.63
2019-05-25T09:51:53.261Z,1011.63
2019-05-25T09:52:53.252Z,1011.62
2019-05-25T09:53:53.236Z,1011.59
2019-05-25T09:54:55.691Z,1011.59
2019-05-25T09:55:53.210Z,1011.61
2019-05-25T09:56:53.207Z,1011.62
2019-05-25T09:57:53.201Z,1011.61
2019-05-25T09:58:53.180Z,1011.59
2019-05-25T09:59:53.214Z,1011.61
2019-05-25T10:00:53.157Z,1011.57
2019-05-25T10:01:53.155Z,1011.62
2019-05-25T10:02:53.169Z,1011.59
2019-05-25T10:03:56.104Z,1011.54
2019-05-25T10:04:53.132Z,1011.54
2019-05-25T10:05:53.106Z,1011.56
2019-05-25T10:06:53.116Z,1011.50
2019-05-25T10:07:53.086Z,1011.51
2019-05-25T10:08:53.069Z,1011.54
2019-05-25T10:09:53.088Z,1011.47
2019-05-25T10:10:53.044Z,1011.50
2019-05-25T10:11:53.039Z,1011.57
2019-05-25T10:12:53.021Z,1011.55
2019-05-25T10:13:53.044Z,1011.53
2019-05-25T10:14:53.024Z,1011.50
2019-05-25T10:15:53.017Z,1011.49
2019-05-25T10:16:52.981Z,1011.56
2019-05-25T10:17:52.990Z,1011.50
2019-05-25T10:18:52.959Z,1011.45
2019-05-25T10:19:52.944Z,1011.51
2019-05-25T10:20:52.957Z,1011.50
2019-05-25T10:21:52.922Z,1011.50
2019-05-25T10:22:52.919Z,1011.53
2019-05-25T10:23:52.903Z,1011.56
2019-05-25T10:24:52.888Z,1011.53
2019-05-25T10:25:52.899Z,1011.56
2019-05-25T10:26:52.871Z,1011.57
2019-05-25T10:27:52.859Z,1011.54
2019-05-25T10:28:52.846Z,1011.54
2019-05-25T10:29:52.834Z,1011.58
2019-05-25T10:30:52.838Z,1011.55
2019-05-25T10:31:52.812Z,1011.54
2019-05-25T10:32:52.809Z,1011.55
2019-05-25T10:33:52.792Z,1011.65
2019-05-25T10:34:52.785Z,1011.53
2019-05-25T10:35:52.800Z,1011.52
2019-05-25T10:36:52.759Z,1011.47
2019-05-25T10:37:52.757Z,1011.49
2019-05-25T10:38:52.739Z,1011.54
2019-05-25T10:39:52.724Z,1011.55
2019-05-25T10:40:52.862Z,1011.52
2019-05-25T10:41:52.713Z,1011.50
2019-05-25T10:42:52.690Z,1011.51
2019-05-25T10:43:52.682Z,1011.57
2019-05-25T10:44:52.675Z,1011.58
2019-05-25T10:45:52.679Z,1011.62
2019-05-25T10:46:52.654Z,1011.52
2019-05-25T10:47:52.708Z,1011.53
2019-05-25T10:48:52.625Z,1011.53
2019-05-25T10:49:52.618Z,1011.78
2019-05-25T10:50:52.656Z,1011.50
2019-05-25T10:51:52.590Z,1011.48
2019-05-25T10:52:52.577Z,1011.58
2019-05-25T10:53:52.566Z,1011.51
2019-05-25T10:54:52.557Z,1011.46
2019-05-25T10:55:52.568Z,1011.44
2019-05-25T10:56:52.536Z,1011.43
2019-05-25T10:57:52.528Z,1011.48
2019-05-25T10:58:52.521Z,1011.44
2019-05-25T10:59:53.542Z,1011.96
2019-05-25T11:00:52.512Z,1011.60
2019-05-25T11:01:52.493Z,1011.45
2019-05-25T11:02:52.466Z,1011.66
2019-05-25T11:03:52.465Z,1011.47
2019-05-25T11:04:52.447Z,1011.43
2019-05-25T11:05:52.464Z,1011.50
2019-05-25T11:06:52.490Z,1011.47
2019-05-25T11:07:52.418Z,1011.48
2019-05-25T11:08:52.406Z,1011.46
2019-05-25T11:09:52.400Z,1011.48
2019-05-25T11:10:52.403Z,1011.45
2019-05-25T11:11:52.371Z,1011.46
2019-05-25T11:12:52.362Z,1011.46
2019-05-25T11:13:52.354Z,1011.43
2019-05-25T11:14:52.342Z,1011.47
2019-05-25T11:15:52.350Z,1011.56
2019-05-25T11:16:52.316Z,1011.53
2019-05-25T11:17:52.299Z,1011.52
2019-05-25T11:18:52.290Z,1011.75
2019-05-25T11:19:52.278Z,1011.54
2019-05-25T11:20:52.294Z,1011.55
2019-05-25T11:21:52.263Z,1011.50
2019-05-25T11:22:52.249Z,1011.52
2019-05-25T11:23:52.235Z,1011.56
2019-05-25T11:24:52.230Z,1011.55
2019-05-25T11:25:52.237Z,1011.98
2019-05-25T11:26:52.207Z,1011.52
2019-05-25T11:27:52.201Z,1011.51
2019-05-25T11:28:52.180Z,1011.48
2019-05-25T11:30:07.563Z,1011.48
2019-05-25T11:30:53.180Z,1011.44
2019-05-25T11:31:57.747Z,1011.50
2019-05-25T11:32:53.152Z,1011.62
2019-05-25T11:33:52.124Z,1011.51
2019-05-25T11:34:52.115Z,1011.48
2019-05-25T11:35:52.125Z,1011.46
2019-05-25T11:36:52.113Z,1011.55
2019-05-25T11:37:52.084Z,1011.54
2019-05-25T11:38:52.067Z,1011.45
2019-05-25T11:39:52.092Z,1011.47
2019-05-25T11:40:52.052Z,1011.45
2019-05-25T11:41:52.074Z,1011.46
2019-05-25T11:42:52.030Z,1011.48
2019-05-25T11:43:52.021Z,1011.45
2019-05-25T11:44:52.004Z,1011.57
2019-05-25T11:45:51.993Z,1011.51
2019-05-25T11:46:52.022Z,1011.48
2019-05-25T11:47:51.979Z,1011.50
2019-05-25T11:48:51.965Z,1011.48
2019-05-25T11:49:51.954Z,1011.53
2019-05-25T11:50:51.943Z,1011.49
2019-05-25T11:51:51.951Z,1011.53
2019-05-25T11:52:52.058Z,1011.45
2019-05-25T11:53:51.917Z,1011.42
2019-05-25T11:54:51.898Z,1011.45
2019-05-25T11:55:51.892Z,1011.36
2019-05-25T11:56:51.896Z,1011.38
2019-05-25T11:57:51.865Z,1011.40
2019-05-25T11:58:51.851Z,1011.40
2019-05-25T11:59:51.837Z,1011.43
2019-05-25T12:00:51.878Z,1011.45
2019-05-25T12:01:51.839Z,1011.42
2019-05-25T12:02:51.808Z,1011.47
2019-05-25T12:03:51.794Z,1011.44
2019-05-25T12:04:52.781Z,1011.43
2019-05-25T12:05:51.770Z,1011.40